Time;durP1;ratioP1;P1;durP2;ratioP2;P2;SDS_P1;SDS_P2;PMS_P1;PMS_P2;Temp;Humidity;BMP_temperature;BMP_pressure;BME280_temperature;BME280_humidity;BME280_pressure;Samples;Min_cycle;Max_cycle;Signal;HPM_P1;HPM_P2
2023/04/30 00:02:07;;;;;;;9.73;6.90;;;7.70;99.90;;;;;;5036082;28;20297;-81
2023/04/30 00:04:33;;;;;;;9.57;7.33;;;7.70;99.90;;;;;;5032749;28;20187;-81
2023/04/30 00:06:58;;;;;;;9.93;6.80;;;7.70;99.90;;;;;;5035691;28;20196;-80
2023/04/30 00:09:24;;;;;;;12.97;7.37;;;7.70;99.90;;;;;;5034642;28;20618;-81
2023/04/30 00:11:49;;;;;;;10.30;7.30;;;7.60;99.90;;;;;;5034014;28;20564;-81
2023/04/30 00:14:15;;;;;;;8.13;6.40;;;7.60;99.90;;;;;;5033884;28;20568;-82
2023/04/30 00:16:41;;;;;;;9.80;7.87;;;7.60;99.90;;;;;;5036573;28;20202;-81
2023/04/30 00:19:07;;;;;;;9.57;7.13;;;7.60;99.90;;;;;;5037031;28;20275;-81
2023/04/30 00:21:33;;;;;;;9.83;6.87;;;7.60;99.90;;;;;;5038492;28;20211;-81
2023/04/30 00:24:01;;;;;;;12.70;6.83;;;7.60;99.90;;;;;;5036816;28;20223;-81
2023/04/30 00:26:27;;;;;;;11.83;6.60;;;7.60;99.90;;;;;;5038077;28;20268;-81
2023/04/30 00:28:52;;;;;;;9.27;6.93;;;7.60;99.90;;;;;;5036651;28;20637;-82
2023/04/30 00:31:18;;;;;;;10.00;7.57;;;7.60;99.90;;;;;;5036401;28;20176;-81
2023/04/30 00:33:43;;;;;;;9.90;7.13;;;7.60;99.90;;;;;;5025700;28;20193;-81
2023/04/30 00:36:09;;;;;;;11.40;7.90;;;7.60;99.90;;;;;;5016247;28;20208;-81
2023/04/30 00:38:35;;;;;;;8.57;6.70;;;7.60;99.90;;;;;;5017355;28;20723;-81
2023/04/30 00:41:00;;;;;;;11.20;7.37;;;7.60;99.90;;;;;;5018655;28;20283;-81
2023/04/30 00:43:26;;;;;;;10.90;6.83;;;7.50;99.90;;;;;;5025970;28;20176;-81
2023/04/30 00:45:52;;;;;;;9.23;7.20;;;7.50;99.90;;;;;;5038322;28;20194;-81
2023/04/30 00:48:17;;;;;;;9.30;7.03;;;7.50;99.90;;;;;;5036579;28;20641;-81
2023/04/30 00:50:43;;;;;;;11.43;7.30;;;7.50;99.90;;;;;;5038389;28;20221;-81
2023/04/30 00:53:10;;;;;;;11.03;8.00;;;7.50;99.90;;;;;;5036231;28;20189;-82
2023/04/30 00:55:36;;;;;;;9.93;7.13;;;7.40;99.90;;;;;;5038138;28;20188;-81
2023/04/30 00:58:02;;;;;;;8.87;6.80;;;7.40;99.90;;;;;;5039320;28;20547;-81
2023/04/30 01:00:28;;;;;;;9.87;7.50;;;7.30;99.90;;;;;;5040052;28;20208;-81
2023/04/30 01:02:55;;;;;;;13.40;8.33;;;7.40;99.90;;;;;;5037189;28;20180;-81
2023/04/30 01:05:21;;;;;;;10.10;7.73;;;7.30;99.90;;;;;;5037889;28;20670;-82
2023/04/30 01:07:48;;;;;;;9.77;6.60;;;7.40;99.90;;;;;;5036488;28;20180;-82
2023/04/30 01:10:14;;;;;;;11.30;7.27;;;7.30;99.90;;;;;;5038023;28;20168;-81
2023/04/30 01:13:10;;;;;;;11.53;7.47;;;7.30;99.90;;;;;;5037607;28;20200;-82
2023/04/30 01:16:15;;;;;;;10.90;7.27;;;7.30;99.90;;;;;;5037903;28;20193;-81
2023/04/30 01:18:49;;;;;;;12.00;7.73;;;7.30;99.90;;;;;;5056632;28;20203;-81
2023/04/30 01:21:18;;;;;;;12.17;7.33;;;7.30;99.90;;;;;;5039278;28;20196;-81
2023/04/30 01:24:03;;;;;;;9.90;7.20;;;7.30;99.90;;;;;;5035094;28;20180;-82
2023/04/30 01:26:51;;;;;;;12.30;6.90;;;7.20;99.90;;;;;;5035879;28;20230;-82
2023/04/30 01:29:20;;;;;;;11.90;6.87;;;7.20;99.90;;;;;;5035736;28;20177;-81
2023/04/30 01:31:46;;;;;;;9.00;6.63;;;7.20;99.90;;;;;;5035811;28;20184;-82
2023/04/30 01:34:11;;;;;;;11.40;7.87;;;7.20;99.90;;;;;;5023326;28;20203;-82
2023/04/30 01:37:06;;;;;;;12.80;6.70;;;7.20;99.90;;;;;;5036065;28;20202;-81
2023/04/30 01:39:58;;;;;;;9.83;7.17;;;7.20;99.90;;;;;;5063342;28;20601;-81
2023/04/30 01:42:44;;;;;;;14.30;7.17;;;7.20;99.90;;;;;;5021962;28;20265;-81
2023/04/30 01:45:35;;;;;;;9.77;7.20;;;7.20;99.90;;;;;;5025590;28;20192;-81
2023/04/30 01:48:03;;;;;;;11.83;7.10;;;7.10;99.90;;;;;;5035373;28;20197;-82
2023/04/30 01:50:49;;;;;;;9.90;7.40;;;7.10;99.90;;;;;;5034821;28;20186;-82
2023/04/30 01:53:32;;;;;;;10.13;6.33;;;7.10;99.90;;;;;;5031415;28;20283;-81
2023/04/30 01:56:08;;;;;;;10.37;7.23;;;7.00;99.90;;;;;;5015408;28;20208;-81
2023/04/30 01:58:36;;;;;;;10.47;7.47;;;7.00;99.90;;;;;;5015254;28;20169;-82
2023/04/30 02:01:02;;;;;;;9.37;7.60;;;7.00;99.90;;;;;;5016679;28;20197;-81
2023/04/30 02:03:28;;;;;;;10.23;6.87;;;7.00;99.90;;;;;;5015783;28;20226;-81
2023/04/30 02:05:54;;;;;;;9.70;7.00;;;7.00;99.90;;;;;;5015905;28;20284;-82
2023/04/30 02:08:19;;;;;;;14.10;7.80;;;7.00;99.90;;;;;;5016438;28;20177;-82
2023/04/30 02:10:45;;;;;;;11.67;7.83;;;7.00;99.90;;;;;;5016710;28;20169;-82
2023/04/30 02:13:11;;;;;;;16.83;8.03;;;6.90;99.90;;;;;;5016729;28;20189;-81
2023/04/30 02:15:36;;;;;;;8.83;6.87;;;6.90;99.90;;;;;;5031830;28;20337;-81
2023/04/30 02:18:02;;;;;;;12.13;8.00;;;6.90;99.90;;;;;;5016747;28;20691;-82
2023/04/30 02:20:28;;;;;;;10.83;7.13;;;6.80;99.90;;;;;;5015457;28;20285;-82
2023/04/30 02:22:53;;;;;;;10.60;8.13;;;6.80;99.90;;;;;;5016297;28;20189;-81
2023/04/30 02:25:19;;;;;;;11.77;7.63;;;6.80;99.90;;;;;;5031695;28;20181;-81
2023/04/30 02:27:45;;;;;;;9.37;7.10;;;6.80;99.90;;;;;;5015447;28;20675;-81
2023/04/30 02:30:10;;;;;;;13.43;7.40;;;6.70;99.90;;;;;;5014305;28;20184;-81
2023/04/30 02:32:36;;;;;;;10.77;7.70;;;6.70;99.90;;;;;;5015121;28;20177;-81
2023/04/30 02:35:01;;;;;;;11.80;7.70;;;6.70;99.90;;;;;;5014316;28;20173;-81
2023/04/30 02:37:27;;;;;;;8.70;6.60;;;6.60;99.90;;;;;;5016476;28;20596;-81
2023/04/30 02:39:53;;;;;;;10.10;7.60;;;6.70;99.90;;;;;;5015619;28;20739;-82
2023/04/30 02:42:18;;;;;;;10.07;6.97;;;6.60;99.90;;;;;;5015222;28;20186;-81
2023/04/30 02:44:44;;;;;;;10.67;7.43;;;6.60;99.90;;;;;;5015188;28;20173;-81
2023/04/30 02:47:09;;;;;;;12.03;8.33;;;6.60;99.90;;;;;;5014936;28;20260;-81
2023/04/30 02:49:35;;;;;;;10.83;8.00;;;6.60;99.90;;;;;;5015360;28;20232;-81
2023/04/30 02:52:01;;;;;;;13.00;8.17;;;6.50;99.90;;;;;;5015501;28;20267;-82
2023/04/30 02:54:26;;;;;;;10.23;7.17;;;6.50;99.90;;;;;;5016195;28;20188;-81
2023/04/30 02:56:52;;;;;;;12.53;7.87;;;6.50;99.90;;;;;;5015402;28;20201;-81
2023/04/30 02:59:18;;;;;;;12.27;8.23;;;6.50;99.90;;;;;;5016052;28;20176;-81
2023/04/30 03:01:43;;;;;;;10.87;8.23;;;6.50;99.90;;;;;;5016367;28;20176;-81
2023/04/30 03:04:09;;;;;;;11.57;8.00;;;6.50;99.90;;;;;;5015685;28;20192;-81
2023/04/30 03:06:35;;;;;;;11.10;8.50;;;6.50;99.90;;;;;;5015150;28;20205;-81
2023/04/30 03:09:01;;;;;;;12.70;8.93;;;6.40;99.90;;;;;;5015374;28;20337;-81
2023/04/30 03:11:26;;;;;;;10.53;7.93;;;6.40;99.90;;;;;;5017046;28;20278;-81
2023/04/30 03:13:52;;;;;;;15.13;9.93;;;6.40;99.90;;;;;;5016420;28;20181;-81
2023/04/30 03:16:19;;;;;;;11.43;8.60;;;6.40;99.90;;;;;;5016266;28;20283;-81
2023/04/30 03:18:45;;;;;;;14.27;9.33;;;6.40;99.90;;;;;;5016587;28;20170;-81
2023/04/30 03:21:10;;;;;;;13.53;9.40;;;6.40;99.90;;;;;;5014940;28;20205;-81
2023/04/30 03:23:36;;;;;;;18.17;9.50;;;6.40;99.90;;;;;;5015507;28;20314;-81
2023/04/30 03:26:02;;;;;;;15.43;10.07;;;6.30;99.90;;;;;;5016079;28;20200;-81
2023/04/30 03:28:27;;;;;;;17.63;10.13;;;6.30;99.90;;;;;;5015923;28;20204;-81
2023/04/30 03:30:53;;;;;;;14.47;9.50;;;6.30;99.90;;;;;;5014986;28;20180;-81
2023/04/30 03:33:18;;;;;;;17.10;9.83;;;6.30;99.90;;;;;;5015175;28;20177;-81
2023/04/30 03:35:44;;;;;;;13.77;10.07;;;6.30;99.90;;;;;;5014555;28;20224;-81
2023/04/30 03:38:10;;;;;;;12.73;9.17;;;6.30;99.90;;;;;;5015375;28;20187;-81
2023/04/30 03:40:35;;;;;;;18.37;9.87;;;6.30;99.90;;;;;;5014070;28;20680;-81
2023/04/30 03:43:01;;;;;;;12.93;9.87;;;6.20;99.90;;;;;;5015051;28;20511;-81
2023/04/30 03:45:26;;;;;;;12.07;9.57;;;6.20;99.90;;;;;;5015314;28;20206;-81
2023/04/30 03:47:52;;;;;;;14.47;9.47;;;6.20;99.90;;;;;;5014928;28;20692;-81
2023/04/30 03:50:17;;;;;;;15.40;9.90;;;6.20;99.90;;;;;;5016711;28;20236;-81
2023/04/30 03:52:44;;;;;;;16.93;9.90;;;6.10;99.90;;;;;;5018781;28;20212;-82
2023/04/30 03:55:10;;;;;;;15.10;10.03;;;6.20;99.90;;;;;;5020579;28;20235;-80
2023/04/30 03:57:37;;;;;;;15.40;9.47;;;6.10;99.90;;;;;;5021777;28;20680;-80
2023/04/30 04:00:06;;;;;;;11.93;9.27;;;6.10;99.90;;;;;;5020797;28;20228;-81
2023/04/30 04:02:32;;;;;;;14.23;10.30;;;6.10;99.90;;;;;;5021041;28;20184;-81
2023/04/30 04:04:58;;;;;;;16.13;10.37;;;6.00;99.90;;;;;;5023189;28;20177;-81
2023/04/30 04:07:23;;;;;;;16.53;10.03;;;6.10;99.90;;;;;;5022540;28;20208;-81
2023/04/30 04:09:49;;;;;;;16.57;10.67;;;6.00;99.90;;;;;;5023241;28;20185;-80
2023/04/30 04:12:15;;;;;;;14.07;10.53;;;6.00;99.90;;;;;;5024256;28;20189;-81
2023/04/30 04:14:40;;;;;;;18.33;11.70;;;6.00;99.90;;;;;;5022759;28;20613;-81
2023/04/30 04:17:06;;;;;;;16.07;10.50;;;6.00;99.90;;;;;;5023955;28;20197;-81
2023/04/30 04:19:32;;;;;;;14.23;10.63;;;6.00;99.90;;;;;;5024616;28;20200;-81
2023/04/30 04:21:57;;;;;;;17.43;10.43;;;6.00;99.90;;;;;;5024155;28;20173;-81
2023/04/30 04:24:24;;;;;;;16.43;11.50;;;6.00;99.90;;;;;;5038691;28;20173;-80
2023/04/30 04:26:50;;;;;;;13.97;11.13;;;6.00;99.90;;;;;;5024972;28;20230;-81
2023/04/30 04:29:15;;;;;;;14.60;11.27;;;6.00;99.90;;;;;;5024449;28;20174;-80
2023/04/30 04:31:41;;;;;;;15.27;11.10;;;6.00;99.90;;;;;;5023916;28;20181;-80
2023/04/30 04:34:07;;;;;;;15.73;11.17;;;6.00;99.90;;;;;;5026932;28;20214;-80
2023/04/30 04:36:33;;;;;;;17.57;11.73;;;6.00;99.90;;;;;;5026383;28;20204;-81
2023/04/30 04:39:00;;;;;;;16.53;11.80;;;6.00;99.90;;;;;;5027251;28;20226;-80
2023/04/30 04:41:31;;;;;;;13.50;11.20;;;6.00;99.90;;;;;;5026028;28;20273;-80
2023/04/30 04:43:57;;;;;;;14.87;11.03;;;6.00;99.90;;;;;;5024209;28;20200;-81
2023/04/30 04:46:23;;;;;;;17.27;11.73;;;6.10;99.90;;;;;;5017465;28;20189;-81
2023/04/30 04:48:49;;;;;;;16.23;12.60;;;6.10;99.90;;;;;;5018285;28;20196;-81
2023/04/30 04:51:14;;;;;;;17.33;12.67;;;6.10;99.90;;;;;;5015393;28;20640;-81
2023/04/30 04:53:40;;;;;;;21.77;12.43;;;6.10;99.90;;;;;;5033268;28;20184;-81
2023/04/30 04:56:06;;;;;;;16.50;12.80;;;6.10;99.90;;;;;;5020271;28;20201;-81
2023/04/30 04:58:32;;;;;;;20.13;13.73;;;6.10;99.90;;;;;;5035844;28;20184;-81
2023/04/30 05:00:59;;;;;;;16.57;11.67;;;6.10;99.90;;;;;;5017597;28;20205;-81
2023/04/30 05:03:29;;;;;;;19.50;12.63;;;6.10;99.90;;;;;;5020159;28;20166;-81
2023/04/30 05:05:55;;;;;;;19.97;12.90;;;6.40;99.90;;;;;;5016530;28;20193;-81
2023/04/30 05:08:21;;;;;;;17.80;12.30;;;6.20;99.90;;;;;;5019578;28;20184;-81
2023/04/30 05:10:47;;;;;;;18.53;12.77;;;6.20;99.90;;;;;;5018919;28;20230;-81
2023/04/30 05:13:12;;;;;;;19.83;12.43;;;6.20;99.90;;;;;;5021134;28;20253;-81
2023/04/30 05:15:38;;;;;;;18.43;12.30;;;6.20;99.90;;;;;;5021097;28;20173;-80
2023/04/30 05:18:03;;;;;;;16.47;12.03;;;6.30;99.90;;;;;;5019687;28;20180;-80
2023/04/30 05:20:29;;;;;;;17.43;13.00;;;6.30;99.90;;;;;;5019609;28;20738;-81
2023/04/30 05:22:54;;;;;;;18.23;12.50;;;6.40;99.90;;;;;;5019644;28;20292;-81
2023/04/30 05:25:20;;;;;;;25.77;12.47;;;6.40;99.90;;;;;;5020261;28;20185;-81
2023/04/30 05:27:45;;;;;;;17.23;13.00;;;6.40;99.90;;;;;;5020430;28;20192;-80
2023/04/30 05:30:11;;;;;;;17.80;11.83;;;6.50;99.90;;;;;;5020586;28;20563;-81
2023/04/30 05:32:37;;;;;;;20.83;12.67;;;6.40;99.90;;;;;;5021059;28;20235;-80
2023/04/30 05:35:03;;;;;;;16.47;13.03;;;6.50;99.90;;;;;;5022353;28;20177;-81
2023/04/30 05:37:28;;;;;;;18.30;13.53;;;6.50;99.90;;;;;;5022061;28;20625;-81
2023/04/30 05:39:54;;;;;;;20.57;12.70;;;6.50;99.90;;;;;;5021865;28;20211;-81
2023/04/30 05:42:20;;;;;;;16.40;12.70;;;6.60;99.90;;;;;;5022543;28;20527;-81
2023/04/30 05:44:47;;;;;;;20.47;14.30;;;6.80;99.90;;;;;;5024393;28;20173;-80
2023/04/30 05:47:12;;;;;;;18.27;13.43;;;6.70;99.90;;;;;;5039923;28;20253;-82
2023/04/30 05:49:38;;;;;;;20.37;14.23;;;6.70;99.90;;;;;;5023868;28;20181;-81
2023/04/30 05:52:04;;;;;;;20.83;14.03;;;6.90;99.90;;;;;;5026257;28;20256;-81
2023/04/30 05:54:30;;;;;;;18.60;14.00;;;6.90;99.90;;;;;;5020354;28;20204;-81
2023/04/30 05:56:55;;;;;;;21.77;15.03;;;7.00;99.90;;;;;;5015761;28;20193;-81
2023/04/30 05:59:21;;;;;;;22.90;14.73;;;7.00;99.90;;;;;;5016546;28;20648;-81
2023/04/30 06:01:46;;;;;;;18.73;14.60;;;7.10;99.90;;;;;;5016285;28;20169;-82
2023/04/30 06:04:12;;;;;;;19.50;14.80;;;7.20;99.90;;;;;;5017963;28;20180;-82
2023/04/30 06:06:37;;;;;;;22.70;15.03;;;7.30;99.90;;;;;;5017227;28;20257;-81
2023/04/30 06:09:03;;;;;;;19.83;14.73;;;7.30;99.90;;;;;;5016330;28;20169;-82
2023/04/30 06:11:29;;;;;;;22.23;15.53;;;7.40;99.90;;;;;;5016290;28;20173;-82
2023/04/30 06:13:55;;;;;;;24.27;14.90;;;7.50;99.90;;;;;;5015408;28;20185;-82
2023/04/30 06:16:21;;;;;;;22.63;17.20;;;7.60;99.90;;;;;;5015401;28;20208;-81
2023/04/30 06:18:47;;;;;;;24.33;18.23;;;7.70;99.90;;;;;;5017231;28;20177;-81
2023/04/30 06:21:12;;;;;;;28.47;17.77;;;7.80;99.90;;;;;;5014472;28;20208;-81
2023/04/30 06:23:37;;;;;;;21.37;15.57;;;7.90;99.90;;;;;;5015540;28;20211;-81
2023/04/30 06:26:03;;;;;;;26.93;17.00;;;7.90;99.90;;;;;;5015254;28;20735;-81
2023/04/30 06:28:29;;;;;;;25.80;17.37;;;8.00;99.90;;;;;;5014864;28;20273;-81
2023/04/30 06:30:54;;;;;;;21.07;15.57;;;8.10;99.90;;;;;;5031372;28;20263;-81
2023/04/30 06:33:20;;;;;;;24.53;16.30;;;8.10;99.90;;;;;;5015979;28;20204;-82
2023/04/30 06:35:46;;;;;;;21.87;15.47;;;8.30;99.90;;;;;;5013774;28;20204;-82
2023/04/30 06:38:12;;;;;;;21.40;15.53;;;8.30;99.90;;;;;;5029963;28;20177;-81
2023/04/30 06:40:38;;;;;;;18.07;14.30;;;8.40;99.90;;;;;;5013179;28;20556;-79
2023/04/30 06:43:04;;;;;;;18.37;12.60;;;8.40;99.90;;;;;;5012558;28;20188;-78
2023/04/30 06:45:30;;;;;;;18.00;13.33;;;8.50;99.90;;;;;;5013197;28;20173;-77
2023/04/30 06:47:56;;;;;;;15.60;12.43;;;8.60;99.90;;;;;;5012686;28;20169;-79
2023/04/30 06:50:22;;;;;;;17.30;12.40;;;8.70;99.90;;;;;;5014042;28;20578;-80
2023/04/30 06:52:47;;;;;;;16.50;11.73;;;8.80;99.90;;;;;;5013377;28;20215;-80
2023/04/30 06:55:13;;;;;;;22.23;12.27;;;8.80;99.90;;;;;;5015444;28;20165;-82
2023/04/30 06:57:38;;;;;;;16.37;11.47;;;8.90;99.90;;;;;;5014451;28;20215;-78
2023/04/30 07:00:08;;;;;;;16.37;12.23;;;9.00;99.90;;;;;;5012122;28;20204;-79
2023/04/30 07:02:33;;;;;;;13.30;10.37;;;9.10;99.90;;;;;;5014365;28;20188;-79
2023/04/30 07:04:59;;;;;;;15.30;10.67;;;9.10;99.90;;;;;;5014881;28;20177;-79
2023/04/30 07:07:24;;;;;;;14.73;10.63;;;9.20;99.90;;;;;;5012994;28;20232;-79
2023/04/30 07:09:51;;;;;;;13.37;10.17;;;9.30;99.90;;;;;;5013938;28;20272;-77
2023/04/30 07:12:16;;;;;;;11.83;9.60;;;9.40;99.90;;;;;;5015361;28;20344;-80
2023/04/30 07:14:43;;;;;;;12.57;9.13;;;9.50;99.90;;;;;;5013703;28;20671;-80
2023/04/30 07:17:09;;;;;;;15.00;9.70;;;9.60;99.90;;;;;;5012892;28;20564;-79
2023/04/30 07:19:34;;;;;;;12.03;9.17;;;9.70;99.90;;;;;;5013994;28;20280;-81
2023/04/30 07:22:00;;;;;;;11.53;9.37;;;9.70;99.90;;;;;;5013208;28;20177;-80
2023/04/30 07:24:26;;;;;;;11.90;9.47;;;9.80;99.90;;;;;;5011859;28;20201;-80
2023/04/30 07:26:51;;;;;;;13.93;9.80;;;9.90;99.90;;;;;;5012746;28;20284;-80
2023/04/30 07:29:17;;;;;;;11.30;9.43;;;10.00;99.90;;;;;;5012906;28;20608;-80
2023/04/30 07:31:43;;;;;;;11.73;8.63;;;10.10;99.90;;;;;;5012113;28;20176;-80
2023/04/30 07:34:08;;;;;;;12.53;8.90;;;10.10;99.90;;;;;;5013688;28;20183;-80
2023/04/30 07:36:34;;;;;;;11.13;8.03;;;10.20;99.90;;;;;;5013450;28;20196;-81
2023/04/30 07:39:00;;;;;;;9.77;8.57;;;10.20;99.90;;;;;;5028029;28;20177;-81
2023/04/30 07:41:25;;;;;;;12.20;8.73;;;10.30;99.90;;;;;;5011327;28;20201;-81
2023/04/30 07:43:51;;;;;;;12.13;8.60;;;10.40;99.90;;;;;;5011686;28;20581;-81
2023/04/30 07:46:17;;;;;;;10.03;8.47;;;10.40;99.90;;;;;;5011098;28;20220;-82
2023/04/30 07:48:43;;;;;;;11.67;7.83;;;10.50;99.90;;;;;;5010808;28;20173;-82
2023/04/30 07:51:09;;;;;;;8.13;7.17;;;10.60;99.90;;;;;;5013144;28;20168;-81
2023/04/30 07:53:34;;;;;;;8.67;7.07;;;10.80;99.90;;;;;;5028218;28;20176;-80
2023/04/30 07:56:00;;;;;;;11.87;8.13;;;10.90;99.90;;;;;;5012168;28;20197;-81
2023/04/30 07:58:25;;;;;;;9.30;7.23;;;11.00;99.90;;;;;;5013947;28;20173;-80
2023/04/30 08:00:51;;;;;;;8.30;6.67;;;11.10;99.90;;;;;;5012642;28;20257;-81
2023/04/30 08:03:18;;;;;;;7.87;6.53;;;11.10;99.90;;;;;;5014302;28;20635;-81
2023/04/30 08:05:45;;;;;;;9.80;6.77;;;11.20;99.90;;;;;;5012787;28;20181;-81
2023/04/30 08:08:11;;;;;;;9.63;6.87;;;11.40;99.90;;;;;;5015496;28;20165;-82
2023/04/30 08:10:37;;;;;;;9.00;7.10;;;11.40;99.90;;;;;;5015331;28;20731;-80
2023/04/30 08:13:04;;;;;;;10.27;7.33;;;11.50;99.90;;;;;;5015678;28;20199;-81
2023/04/30 08:15:29;;;;;;;7.97;6.67;;;11.60;99.90;;;;;;5014017;28;20176;-81
2023/04/30 08:17:55;;;;;;;8.27;7.07;;;11.70;99.90;;;;;;5014334;28;20185;-81
2023/04/30 08:20:22;;;;;;;8.07;6.03;;;11.80;99.90;;;;;;5014783;28;20189;-80
2023/04/30 08:22:48;;;;;;;8.80;6.50;;;11.80;99.90;;;;;;5011178;28;20177;-81
2023/04/30 08:25:13;;;;;;;8.23;6.47;;;11.90;99.90;;;;;;5011280;28;20176;-78
2023/04/30 08:27:39;;;;;;;10.23;7.20;;;11.90;99.90;;;;;;5012039;28;20565;-79
2023/04/30 08:30:06;;;;;;;12.60;6.70;;;11.90;99.90;;;;;;5011222;28;20253;-79
2023/04/30 08:32:35;;;;;;;8.87;6.10;;;12.00;99.90;;;;;;5012418;28;20181;-80
2023/04/30 08:35:02;;;;;;;6.43;5.67;;;12.10;99.90;;;;;;5011275;28;20181;-80
2023/04/30 08:37:28;;;;;;;8.33;6.40;;;12.20;99.90;;;;;;5015212;28;20209;-80
2023/04/30 08:39:53;;;;;;;7.67;5.90;;;12.30;99.90;;;;;;5016267;28;20258;-79
2023/04/30 08:42:23;;;;;;;5.93;5.33;;;12.50;99.90;;;;;;5016506;28;20177;-79
2023/04/30 08:44:48;;;;;;;7.50;5.43;;;12.60;99.90;;;;;;5018790;28;20165;-79
2023/04/30 08:47:15;;;;;;;6.57;5.20;;;12.60;99.90;;;;;;5017853;28;20279;-79
2023/04/30 08:49:42;;;;;;;6.53;5.17;;;12.60;99.90;;;;;;5015525;28;20287;-79
2023/04/30 08:52:09;;;;;;;6.97;5.33;;;12.70;99.90;;;;;;5017086;28;20180;-80
2023/04/30 08:54:35;;;;;;;7.27;5.17;;;12.70;99.90;;;;;;5015742;28;20569;-82
2023/04/30 08:57:01;;;;;;;6.83;5.63;;;12.80;99.90;;;;;;5017505;28;20271;-81
2023/04/30 08:59:27;;;;;;;5.97;4.80;;;12.80;99.90;;;;;;5017168;28;20611;-81
2023/04/30 09:01:52;;;;;;;7.33;5.43;;;13.00;99.90;;;;;;5015680;28;20161;-83
2023/04/30 09:04:18;;;;;;;9.73;6.37;;;13.10;99.90;;;;;;5013973;28;20256;-83
2023/04/30 09:06:43;;;;;;;6.53;5.13;;;13.10;99.90;;;;;;5015883;28;20541;-81
2023/04/30 09:09:12;;;;;;;7.77;6.03;;;13.10;99.90;;;;;;5015927;28;20277;-81
2023/04/30 09:11:38;;;;;;;6.13;4.67;;;13.30;99.90;;;;;;5014547;28;20192;-81
2023/04/30 09:14:03;;;;;;;8.80;5.27;;;13.40;99.90;;;;;;5015727;28;20168;-81
2023/04/30 09:16:46;;;;;;;6.27;4.60;;;13.40;99.90;;;;;;5015278;28;20193;-83
2023/04/30 09:19:29;;;;;;;5.03;4.43;;;13.50;99.90;;;;;;5016142;28;20190;-82
2023/04/30 09:21:56;;;;;;;7.07;5.63;;;13.60;99.90;;;;;;5014826;28;20180;-82
2023/04/30 09:24:22;;;;;;;9.03;5.17;;;13.70;99.90;;;;;;5016345;28;20187;-79
2023/04/30 09:26:48;;;;;;;9.20;4.60;;;13.70;99.90;;;;;;5015468;28;20279;-85
2023/04/30 09:29:14;;;;;;;6.33;4.07;;;13.80;99.90;;;;;;5030817;28;20216;-80
2023/04/30 09:31:43;;;;;;;4.47;3.53;;;14.10;99.90;;;;;;5016518;28;20169;-81
2023/04/30 09:34:09;;;;;;;3.23;2.87;;;13.90;99.90;;;;;;5017766;28;20226;-80
2023/04/30 09:36:35;;;;;;;5.23;3.33;;;14.00;99.90;;;;;;5014920;28;20196;-80
2023/04/30 09:39:12;;;;;;;4.60;3.60;;;14.10;99.90;;;;;;5015476;28;20173;-82
2023/04/30 09:41:38;;;;;;;4.93;3.67;;;14.10;99.90;;;;;;5017392;28;20184;-82
2023/04/30 09:44:04;;;;;;;5.33;3.13;;;14.20;99.90;;;;;;5014934;28;20173;-82
2023/04/30 09:46:37;;;;;;;4.17;2.90;;;14.30;99.90;;;;;;5016342;28;20205;-83
2023/04/30 09:49:04;;;;;;;6.33;2.40;;;14.40;99.90;;;;;;5014501;28;20626;-81
2023/04/30 09:51:30;;;;;;;2.67;2.17;;;14.50;99.90;;;;;;5016490;28;20238;-81
2023/04/30 09:53:56;;;;;;;2.90;2.30;;;14.50;99.90;;;;;;5015868;28;20180;-80
2023/04/30 09:56:24;;;;;;;4.70;2.50;;;14.60;99.90;;;;;;5019041;28;20197;-79
2023/04/30 09:58:54;;;;;;;4.83;2.80;;;14.70;99.90;;;;;;5018089;28;20548;-81
2023/04/30 10:01:21;;;;;;;5.03;2.97;;;14.70;99.90;;;;;;5018097;28;20251;-81
2023/04/30 10:03:48;;;;;;;6.87;2.80;;;14.70;99.90;;;;;;5017190;28;20176;-79
2023/04/30 10:06:17;;;;;;;2.70;2.50;;;14.80;99.90;;;;;;5018988;28;20214;-80
2023/04/30 10:08:45;;;;;;;5.80;2.90;;;14.90;99.90;;;;;;5018085;28;20234;-79
2023/04/30 10:11:17;;;;;;;3.00;2.50;;;15.00;99.90;;;;;;5017592;28;20554;-79
2023/04/30 10:14:00;;;;;;;4.37;3.60;;;15.00;99.90;;;;;;5019101;28;20185;-80
2023/04/30 10:16:52;;;;;;;3.67;2.77;;;15.00;99.90;;;;;;5019102;28;20220;-79
2023/04/30 10:19:23;;;;;;;3.67;2.77;;;15.10;99.90;;;;;;5017530;28;20221;-80
2023/04/30 10:21:50;;;;;;;3.67;2.90;;;15.10;99.90;;;;;;5016839;28;20188;-80
2023/04/30 10:24:18;;;;;;;3.77;2.60;;;15.20;99.90;;;;;;5018723;28;20173;-79
2023/04/30 10:26:45;;;;;;;4.50;2.57;;;15.20;99.90;;;;;;5015564;28;20809;-80
2023/04/30 10:29:13;;;;;;;3.03;2.23;;;15.40;99.90;;;;;;5016524;28;20204;-80
2023/04/30 10:31:40;;;;;;;5.07;3.50;;;15.40;99.90;;;;;;5018128;28;20570;-79
2023/04/30 10:34:32;;;;;;;5.00;2.73;;;15.50;99.90;;;;;;5017330;28;20195;-79
2023/04/30 10:37:03;;;;;;;2.90;2.30;;;15.60;99.90;;;;;;5016638;28;20200;-79
2023/04/30 10:39:29;;;;;;;3.03;2.40;;;15.70;99.90;;;;;;5019421;28;20197;-78
2023/04/30 10:42:03;;;;;;;2.30;2.03;;;15.70;99.90;;;;;;5018634;28;20237;-79
2023/04/30 10:44:40;;;;;;;2.67;2.20;;;15.90;84.90;;;;;;5018714;28;20173;-80
2023/04/30 10:47:06;;;;;;;3.10;2.17;;;16.00;92.00;;;;;;5018158;28;20200;-79
2023/04/30 10:49:33;;;;;;;3.57;2.87;;;16.10;79.00;;;;;;5017759;28;20243;-79
2023/04/30 10:52:02;;;;;;;4.40;3.10;;;16.20;26.10;;;;;;5017108;28;20170;-79
2023/04/30 10:54:30;;;;;;;4.50;2.80;;;16.20;3.40;;;;;;5017550;28;20176;-79
2023/04/30 10:57:19;;;;;;;2.87;2.13;;;16.30;62.20;;;;;;5017037;28;20562;-78
2023/04/30 11:00:07;;;;;;;2.97;2.50;;;16.20;90.10;;;;;;5012147;28;20189;-79
2023/04/30 11:02:42;;;;;;;3.60;2.40;;;16.40;27.50;;;;;;5030031;28;20261;-79
2023/04/30 11:05:12;;;;;;;3.00;2.20;;;16.40;80.50;;;;;;5014904;28;20176;-79
2023/04/30 11:07:57;;;;;;;3.47;2.50;;;16.40;24.20;;;;;;5014883;28;20203;-79
2023/04/30 11:10:25;;;;;;;3.40;2.30;;;16.50;25.30;;;;;;5013892;28;20188;-77
2023/04/30 11:12:53;;;;;;;3.13;2.20;;;16.50;61.90;;;;;;5013626;28;20756;-78
2023/04/30 11:15:26;;;;;;;2.07;1.67;;;16.60;64.70;;;;;;5014381;28;20181;-79
2023/04/30 11:17:57;;;;;;;4.07;2.03;;;16.70;32.40;;;;;;5014243;28;20238;-79
2023/04/30 11:20:24;;;;;;;2.00;1.80;;;16.70;1.00;;;;;;5029092;28;20238;-79
2023/04/30 11:23:13;;;;;;;4.03;2.10;;;16.90;99.90;;;;;;5028141;28;20188;-78
2023/04/30 11:25:44;;;;;;;2.20;2.00;;;16.90;1.00;;;;;;5012699;28;20177;-79
2023/04/30 11:28:18;;;;;;;2.73;2.23;;;17.00;1.00;;;;;;5013661;28;20713;-79
2023/04/30 11:30:57;;;;;;;2.80;1.97;;;17.00;1.00;;;;;;5013392;28;20176;-79
2023/04/30 11:33:25;;;;;;;3.00;1.70;;;16.70;1.00;;;;;;5013039;28;20229;-79
2023/04/30 11:35:52;;;;;;;1.90;1.70;;;16.70;1.00;;;;;;5014732;28;20204;-79
2023/04/30 11:38:25;;;;;;;3.17;2.20;;;16.70;1.00;;;;;;5013620;28;20188;-80
2023/04/30 11:40:53;;;;;;;2.10;1.60;;;16.90;1.00;;;;;;5012267;28;20203;-79
2023/04/30 11:43:36;;;;;;;1.70;1.40;;;16.90;1.00;;;;;;5011517;28;20554;-79
2023/04/30 11:46:08;;;;;;;2.07;1.67;;;17.10;99.90;;;;;;5014441;28;20283;-80
2023/04/30 11:48:38;;;;;;;2.13;1.70;;;17.10;84.70;;;;;;5012388;28;20245;-78
2023/04/30 11:51:23;;;;;;;3.27;1.53;;;17.20;99.90;;;;;;5010339;28;20594;-79
2023/04/30 11:53:50;;;;;;;2.97;1.57;;;17.30;99.90;;;;;;5012482;28;20157;-78
2023/04/30 11:56:24;;;;;;;1.53;1.27;;;17.30;99.90;;;;;;5013023;28;20200;-79
2023/04/30 11:58:51;;;;;;;1.20;1.10;;;17.30;99.90;;;;;;5011631;28;20165;-79
2023/04/30 12:01:18;;;;;;;2.10;1.50;;;17.40;99.90;;;;;;5013045;28;20571;-77
2023/04/30 12:03:46;;;;;;;2.07;1.33;;;17.50;99.90;;;;;;5012471;28;20180;-79
2023/04/30 12:06:21;;;;;;;2.67;1.50;;;17.60;99.90;;;;;;5014193;28;20193;-79
2023/04/30 12:08:47;;;;;;;1.97;1.30;;;17.70;99.90;;;;;;5012211;28;20172;-78
2023/04/30 12:11:24;;;;;;;1.83;1.27;;;17.80;99.90;;;;;;5013023;28;20325;-79
2023/04/30 12:14:06;;;;;;;2.03;1.30;;;17.80;99.90;;;;;;5015940;28;20192;-79
2023/04/30 12:16:51;;;;;;;2.07;1.47;;;17.80;99.90;;;;;;5017203;28;20192;-79
2023/04/30 12:19:21;;;;;;;1.43;1.20;;;17.80;99.90;;;;;;5030543;28;20665;-79
2023/04/30 12:21:47;;;;;;;2.43;1.43;;;17.80;99.90;;;;;;5017285;28;20227;-79
2023/04/30 12:24:15;;;;;;;2.43;1.20;;;17.80;99.90;;;;;;5013705;28;20196;-78
2023/04/30 12:26:41;;;;;;;1.60;1.50;;;17.80;99.90;;;;;;5017055;28;20203;-79
2023/04/30 12:29:17;;;;;;;2.63;1.17;;;17.90;99.90;;;;;;5016636;28;20173;-79
2023/04/30 12:31:44;;;;;;;2.17;1.50;;;17.90;99.90;;;;;;5015442;28;20183;-79
2023/04/30 12:34:12;;;;;;;1.60;1.30;;;17.90;99.90;;;;;;5016483;28;20185;-79
2023/04/30 12:36:42;;;;;;;1.50;1.20;;;17.90;99.90;;;;;;5013046;28;20550;-77
2023/04/30 12:39:14;;;;;;;1.93;1.20;;;17.90;99.90;;;;;;5014074;28;20196;-78
2023/04/30 12:41:48;;;;;;;3.37;1.10;;;17.90;99.90;;;;;;5012448;28;20203;-77
2023/04/30 12:44:23;;;;;;;1.50;1.20;;;17.80;99.90;;;;;;5013310;28;20230;-78
2023/04/30 12:46:52;;;;;;;3.17;1.20;;;18.00;99.90;;;;;;5014843;28;20195;-78
2023/04/30 12:49:29;;;;;;;1.27;0.83;;;18.00;99.90;;;;;;5014329;28;20177;-78
2023/04/30 12:52:12;;;;;;;2.83;1.40;;;18.00;99.90;;;;;;5016342;28;20165;-79